.
WxDataArchive / Data Records for 2016-04-15
2016-04-14 April 2016 2016-04-16

Data Records for Friday, 15 April 2016

Time	Temp	Chill	HIndex	Humid	Dewpt	 Wind 	HiWind	WindDir	Rain 	Barom
-----	----	-----	------	-----	-----	------	------	-------	-----	-----
00:00	41.9	41.9	41.9	53	26.0	1	4	90	0.00	30.243 
00:05	41.8	41.8	41.8	53	25.9	1	3	90	0.00	30.243 
00:10	41.5	41.5	41.5	54	26.1	0	2	90	0.00	30.243 
00:15	41.2	41.2	41.2	54	25.8	0	2	90	0.00	30.242 
00:20	41.1	41.1	41.1	54	25.7	1	3	90	0.00	30.242 
00:25	40.9	40.9	40.9	55	26.0	0	2	90	0.00	30.242 
00:30	40.8	40.8	40.8	56	26.3	0	2	90	0.00	30.239 
00:35	40.5	40.5	40.5	57	26.5	0	0	---	0.00	30.239 
00:40	40.3	40.3	40.3	57	26.3	0	1	90	0.00	30.239 
00:45	40.2	40.2	40.2	57	26.2	0	2	90	0.00	30.242 
00:50	40.2	40.2	40.2	58	26.6	0	2	90	0.00	30.242 
00:55	40.1	40.1	40.1	58	26.5	0	1	90	0.00	30.242 
01:00	40.1	40.1	40.1	58	26.5	0	1	90	0.00	30.236 
01:05	40.1	40.1	40.1	58	26.5	0	1	90	0.00	30.236 
01:10	40.1	40.1	40.1	58	26.5	0	0	---	0.00	30.236 
01:15	39.9	39.9	39.9	57	25.9	0	1	90	0.00	30.233 
01:20	39.9	39.9	39.9	57	25.9	0	0	---	0.00	30.233 
01:25	39.8	39.8	39.8	57	25.8	0	1	90	0.00	30.233 
01:30	39.8	39.8	39.8	57	25.8	0	1	90	0.00	30.232 
01:35	39.8	39.8	39.8	58	26.2	0	1	90	0.00	30.232 
01:40	39.8	39.8	39.8	58	26.2	0	1	90	0.00	30.232 
01:45	39.8	39.8	39.8	58	26.2	0	2	90	0.00	30.229 
01:50	39.6	39.6	39.6	58	26.1	0	1	90	0.00	30.229 
01:55	39.6	39.6	39.6	58	26.1	0	1	90	0.00	30.229 
02:00	39.6	39.6	39.6	58	26.1	0	3	90	0.00	30.222 
02:05	39.6	39.6	39.6	58	26.1	1	3	90	0.00	30.222 
02:10	39.6	39.6	39.6	59	26.5	0	2	90	0.00	30.222 
02:15	39.5	39.5	39.5	59	26.4	0	1	90	0.00	30.215 
02:20	39.3	39.3	39.3	59	26.2	0	3	90	0.00	30.215 
02:25	39.3	39.3	39.3	60	26.6	0	2	90	0.00	30.215 
02:30	39.5	39.5	39.5	60	26.8	0	2	90	0.00	30.212 
02:35	39.3	39.3	39.3	61	27.0	0	2	90	0.00	30.212 
02:40	39.3	39.3	39.3	62	27.4	0	4	90	0.00	30.212 
02:45	39.3	39.3	39.3	63	27.8	0	2	90	0.00	30.209 
02:50	39.2	39.2	39.2	64	28.1	0	2	90	0.00	30.209 
02:55	39.2	39.2	39.2	64	28.1	0	3	90	0.00	30.209 
03:00	39.2	39.2	39.2	65	28.4	0	4	90	0.00	30.203 
03:05	39.1	39.1	39.1	66	28.7	0	2	90	0.00	30.203 
03:10	38.9	38.9	38.9	66	28.5	1	4	90	0.00	30.203 
03:15	38.9	38.9	38.9	67	28.9	1	3	90	0.00	30.199 
03:20	38.8	38.8	38.8	68	29.2	1	5	112	0.00	30.199 
03:25	38.8	38.8	38.8	68	29.2	1	4	112	0.00	30.199 
03:30	38.6	38.6	38.6	69	29.3	0	2	112	0.00	30.198 
03:35	38.6	38.6	38.6	70	29.7	1	3	112	0.00	30.198 
03:40	38.5	38.5	38.5	71	29.9	1	4	112	0.00	30.198 
03:45	38.3	38.3	38.3	71	29.7	0	3	112	0.00	30.197 
03:50	38.3	38.3	38.3	72	30.1	1	4	112	0.00	30.197 
03:55	38.2	38.2	38.2	73	30.3	0	2	112	0.00	30.197 
04:00	38.0	38.0	38.0	73	30.1	0	4	112	0.00	30.197 
04:05	38.0	38.0	38.0	74	30.5	0	4	112	0.00	30.197 
04:10	37.9	37.9	37.9	74	30.4	0	3	112	0.00	30.197 
04:15	37.9	37.9	37.9	75	30.7	1	3	112	0.00	30.199 
04:20	37.8	37.8	37.8	76	30.9	1	3	112	0.00	30.199 
04:25	37.6	37.6	37.6	76	30.7	0	4	112	0.00	30.199 
04:30	37.5	37.5	37.5	77	31.0	0	1	112	0.00	30.201 
04:35	37.5	37.5	37.5	77	31.0	1	5	90	0.00	30.201 
04:40	37.3	37.3	37.3	77	30.8	0	4	90	0.00	30.201 
04:45	37.3	37.3	37.3	77	30.8	1	3	90	0.00	30.206 
04:50	37.3	37.3	37.3	78	31.1	0	3	90	0.00	30.206 
04:55	37.2	37.2	37.2	78	31.0	0	1	90	0.00	30.206 
05:00	37.2	37.2	37.2	78	31.0	0	2	90	0.00	30.207 
05:05	37.2	37.2	37.2	79	31.3	0	2	90	0.00	30.207 
05:10	37.0	37.0	37.0	79	31.1	0	1	90	0.00	30.207 
05:15	37.0	37.0	37.0	79	31.1	0	2	90	0.00	30.208 
05:20	37.0	37.0	37.0	79	31.1	0	1	90	0.00	30.208 
05:25	36.9	36.9	36.9	80	31.3	0	2	90	0.00	30.208 
05:30	36.8	36.8	36.8	80	31.2	0	1	90	0.00	30.204 
05:35	36.8	36.8	36.8	81	31.5	0	2	90	0.00	30.204 
05:40	36.8	36.8	36.8	81	31.5	0	1	90	0.00	30.204 
05:45	36.8	36.8	36.8	81	31.5	0	1	90	0.00	30.205 
05:50	36.8	36.8	36.8	81	31.5	0	1	90	0.00	30.205 
05:55	36.8	36.8	36.8	81	31.5	0	1	90	0.00	30.205 
06:00	36.8	36.8	36.8	81	31.5	0	1	90	0.00	30.207 
06:05	36.9	36.9	36.9	81	31.6	0	1	90	0.00	30.207 
06:10	36.9	36.9	36.9	81	31.6	0	1	90	0.00	30.207 
06:15	36.8	36.8	36.8	81	31.5	0	1	90	0.00	30.213 
06:20	36.8	36.8	36.8	81	31.5	0	1	90	0.00	30.213 
06:25	36.9	36.9	36.9	81	31.6	0	2	90	0.00	30.213 
06:30	36.9	36.9	36.9	81	31.6	0	2	90	0.00	30.218 
06:35	36.8	36.8	36.8	81	31.5	0	3	90	0.00	30.218 
06:40	36.8	36.8	36.8	81	31.5	0	2	90	0.00	30.218 
06:45	36.6	36.6	36.6	81	31.3	0	1	90	0.00	30.221 
06:50	36.5	36.5	36.5	81	31.2	0	2	90	0.00	30.221 
06:55	36.3	36.3	36.3	81	31.0	0	1	90	0.00	30.221 
07:00	36.2	36.2	36.2	82	31.2	0	0	---	0.00	30.223 
07:05	36.0	36.0	36.0	82	31.0	0	0	---	0.00	30.223 
07:10	36.0	36.0	36.0	82	31.0	0	1	90	0.00	30.223 
07:15	36.0	36.0	36.0	82	31.0	0	1	90	0.00	30.234 
07:20	36.0	36.0	36.0	82	31.0	0	1	90	0.00	30.234 
07:25	36.2	36.2	36.2	81	30.9	0	3	90	0.00	30.234 
07:30	36.5	36.5	36.5	81	31.2	0	3	90	0.00	30.238 
07:35	36.6	36.6	36.6	81	31.3	0	3	90	0.00	30.238 
07:40	36.9	36.9	36.9	80	31.3	0	2	90	0.00	30.238 
07:45	37.3	37.3	37.3	79	31.4	0	1	90	0.00	30.238 
07:50	37.8	37.8	37.8	78	31.6	0	3	90	0.00	30.238 
07:55	38.5	38.5	38.5	76	31.6	0	4	90	0.00	30.238 
08:00	38.9	38.9	38.9	75	31.7	0	3	90	0.00	30.242 
08:05	39.5	39.5	39.5	73	31.6	1	3	90	0.00	30.242 
08:10	40.1	40.1	40.1	73	32.2	0	2	90	0.00	30.242 
08:15	40.5	40.5	40.5	71	31.8	2	5	90	0.00	30.245 
08:20	40.9	40.9	40.9	70	31.9	2	4	90	0.00	30.245 
08:25	41.2	41.2	41.2	70	32.2	2	5	90	0.00	30.245 
08:30	41.2	41.2	41.2	69	31.8	3	6	90	0.00	30.250 
08:35	41.3	41.3	41.3	69	31.9	3	6	90	0.00	30.250 
08:40	41.6	41.6	41.6	69	32.2	2	6	90	0.00	30.250 
08:45	42.1	42.1	42.1	68	32.3	2	9	90	0.00	30.251 
08:50	42.3	42.3	42.3	67	32.1	2	7	112	0.00	30.251 
08:55	42.5	42.5	42.5	67	32.3	2	5	90	0.00	30.251 
09:00	42.6	42.6	42.6	66	32.0	3	7	90	0.00	30.249 
09:05	42.6	42.6	42.6	67	32.4	3	6	112	0.00	30.249 
09:10	43.1	43.1	43.1	66	32.5	3	5	90	0.00	30.249 
09:15	43.5	43.5	43.5	65	32.5	2	6	90	0.00	30.258 
09:20	43.8	43.8	43.8	65	32.8	2	7	90	0.00	30.258 
09:25	44.1	44.1	44.1	64	32.7	1	4	68	0.00	30.258 
09:30	44.5	44.5	44.5	64	33.1	1	5	68	0.00	30.254 
09:35	44.8	44.8	44.8	63	33.0	2	6	90	0.00	30.254 
09:40	45.1	43.2	45.1	63	33.3	4	6	90	0.00	30.254 
09:45	45.7	45.7	45.7	64	34.2	2	4	90	0.00	30.250 
09:50	46.1	46.1	46.1	62	33.8	2	6	90	0.00	30.250 
09:55	46.4	46.4	46.4	62	34.1	3	7	90	0.00	30.250 
10:00	47.0	47.0	47.0	62	34.7	2	7	90	0.00	30.251 
10:05	47.1	47.1	47.1	60	33.9	3	7	90	0.00	30.251 
10:10	47.6	47.6	47.6	60	34.4	2	6	90	0.00	30.251 
10:15	48.2	48.2	48.2	59	34.6	3	6	90	0.00	30.250 
10:20	48.8	48.8	48.8	59	35.1	2	5	112	0.00	30.250 
10:25	49.4	49.4	49.4	57	34.8	1	4	68	0.00	30.250 
10:30	50.1	50.1	50.1	56	35.0	1	6	68	0.00	30.248 
10:35	50.7	50.7	50.7	55	35.1	1	5	112	0.00	30.248 
10:40	51.3	51.3	51.3	56	36.1	0	2	112	0.00	30.248 
10:45	51.6	51.6	51.6	54	35.5	1	4	45	0.00	30.249 
10:50	51.9	51.9	51.9	54	35.8	1	5	45	0.00	30.249 
10:55	52.3	52.3	52.3	54	36.2	2	5	90	0.00	30.249 
11:00	52.9	52.9	52.9	55	37.2	1	5	90	0.00	30.247 
11:05	53.5	53.5	53.5	53	36.8	1	4	90	0.00	30.247 
11:10	54.1	54.1	54.1	53	37.4	0	2	90	0.00	30.247 
11:15	54.5	54.5	54.5	53	37.7	1	6	90	0.00	30.246 
11:20	54.8	54.8	54.8	53	38.0	1	4	338	0.00	30.246 
11:25	55.4	55.4	55.4	53	38.6	1	4	90	0.00	30.246 
11:30	55.7	55.7	55.7	51	37.9	1	3	22	0.00	30.244 
11:35	56.3	56.3	56.3	50	37.9	2	4	112	0.00	30.244 
11:40	56.5	56.5	56.5	48	37.0	1	5	45	0.00	30.244 
11:45	56.9	56.9	56.9	52	39.5	1	4	45	0.00	30.241 
11:50	57.8	57.8	57.8	48	38.2	2	5	68	0.00	30.241 
11:55	58.0	58.0	58.0	48	38.4	2	7	90	0.00	30.241 
12:00	58.1	58.1	58.1	49	39.0	2	6	90	0.00	30.236 
12:05	58.6	58.6	58.6	47	38.4	2	6	90	0.00	30.236 
12:10	59.0	59.0	59.0	46	38.2	1	5	112	0.00	30.236 
12:15	59.6	59.6	59.6	47	39.3	1	4	68	0.00	30.233 
12:20	60.1	60.1	60.1	44	38.1	2	5	90	0.00	30.233 
12:25	60.5	60.5	60.5	44	38.5	1	5	90	0.00	30.233 
12:30	60.9	60.9	60.9	43	38.3	2	5	112	0.00	30.231 
12:35	61.2	61.2	61.2	44	39.1	1	4	68	0.00	30.231 
12:40	61.6	61.6	61.6	47	41.2	1	4	90	0.00	30.231 
12:45	62.3	62.3	62.3	44	40.1	1	4	45	0.00	30.226 
12:50	62.6	62.6	62.6	44	40.4	2	5	112	0.00	30.226 
12:55	62.7	62.7	62.7	42	39.3	3	6	112	0.00	30.226 
13:00	62.9	62.9	62.9	41	38.8	2	5	90	0.00	30.225 
13:05	63.2	63.2	63.2	46	42.1	1	5	112	0.00	30.225 
13:10	63.7	63.7	63.7	45	42.0	1	5	45	0.00	30.225 
13:15	63.9	63.9	63.9	41	39.7	3	6	112	0.00	30.222 
13:20	64.2	64.2	64.2	41	40.0	1	5	68	0.00	30.222 
13:25	64.5	64.5	64.5	41	40.3	2	5	112	0.00	30.222 
13:30	65.0	65.0	65.0	42	41.3	2	5	112	0.00	30.219 
13:35	65.5	65.5	65.5	40	40.5	1	3	45	0.00	30.219 
13:40	65.8	65.8	65.8	41	41.4	2	6	135	0.00	30.219 
13:45	66.1	66.1	66.1	39	40.4	2	7	90	0.00	30.213 
13:50	66.0	66.0	66.0	37	39.0	3	6	112	0.00	30.213 
13:55	66.0	66.0	66.0	39	40.3	2	7	90	0.00	30.213 
14:00	66.3	66.3	66.3	39	40.6	1	4	68	0.00	30.209 
14:05	66.4	66.4	66.4	39	40.7	2	6	90	0.00	30.209 
14:10	66.8	66.8	66.8	37	39.7	2	6	90	0.00	30.209 
14:15	67.1	67.1	67.1	37	40.0	2	7	90	0.00	30.206 
14:20	67.4	67.4	67.4	39	41.6	2	5	90	0.00	30.206 
14:25	67.6	67.6	67.6	34	38.2	2	6	90	0.00	30.206 
14:30	67.6	67.6	67.6	34	38.2	3	7	90	0.00	30.205 
14:35	67.9	67.9	67.9	35	39.2	2	5	90	0.00	30.205 
14:40	68.3	68.3	68.3	33	38.1	1	6	90	0.00	30.205 
14:45	68.3	68.3	68.3	34	38.8	2	5	90	0.00	30.203 
14:50	68.6	68.6	68.6	35	39.8	2	6	68	0.00	30.203 
14:55	68.8	68.8	68.8	35	40.0	2	7	90	0.00	30.203 
15:00	68.8	68.8	68.8	31	36.9	3	7	112	0.00	30.198 
15:05	68.6	68.6	68.6	33	38.3	3	7	112	0.00	30.198 
15:10	68.9	68.9	68.9	32	37.8	2	6	112	0.00	30.198 
15:15	69.1	69.1	69.1	28	34.6	3	6	112	0.00	30.199 
15:20	69.3	69.3	69.3	31	37.4	2	9	112	0.00	30.199 
15:25	69.4	69.4	69.4	32	38.3	1	5	112	0.00	30.199 
15:30	69.8	69.8	69.8	31	37.8	2	5	68	0.00	30.192 
15:35	69.9	69.9	69.9	30	37.0	3	6	112	0.00	30.192 
15:40	69.8	69.8	69.8	30	37.0	2	7	112	0.00	30.192 
15:45	69.6	69.6	69.6	28	35.0	4	9	112	0.00	30.188 
15:50	69.8	69.8	69.8	28	35.2	2	9	112	0.00	30.188 
15:55	69.9	69.9	69.9	29	36.2	3	7	112	0.00	30.188 
16:00	69.8	69.8	69.8	28	35.2	2	6	112	0.00	30.188 
16:05	69.8	69.8	69.8	28	35.2	3	9	90	0.00	30.188 
16:10	69.8	69.8	69.8	29	36.1	3	7	90	0.00	30.188 
16:15	69.9	69.9	69.9	29	36.2	3	7	90	0.00	30.188 
16:20	69.8	69.8	69.8	28	35.2	4	9	90	0.00	30.188 
16:25	69.8	69.8	69.8	27	34.3	2	5	112	0.00	30.188 
16:30	69.9	69.9	69.9	28	35.3	2	4	90	0.00	30.185 
16:35	70.1	70.1	70.1	28	35.5	3	6	112	0.00	30.185 
16:40	70.1	70.1	70.1	27	34.6	4	10	90	0.00	30.185 
16:45	70.1	70.1	70.1	25	32.6	3	6	90	0.00	30.185 
16:50	70.1	70.1	70.1	28	35.5	3	10	90	0.00	30.185 
16:55	70.1	70.1	70.1	28	35.5	2	6	90	0.00	30.185 
17:00	70.3	70.3	70.3	28	35.6	2	7	90	0.00	30.182 
17:05	70.4	70.4	70.4	27	34.8	3	6	112	0.00	30.182 
17:10	70.4	70.4	70.4	29	36.6	2	6	112	0.00	30.182 
17:15	70.4	70.4	70.4	27	34.8	2	7	90	0.00	30.187 
17:20	70.3	70.3	70.3	30	37.4	2	5	90	0.00	30.187 
17:25	70.3	70.3	70.3	29	36.5	3	5	112	0.00	30.187 
17:30	70.3	70.3	70.3	30	37.4	1	4	112	0.00	30.186 
17:35	70.4	70.4	70.4	31	38.3	2	6	68	0.00	30.186 
17:40	70.8	70.8	70.8	27	35.2	1	3	68	0.00	30.186 
17:45	70.8	70.8	70.8	29	37.0	1	5	68	0.00	30.184 
17:50	70.8	70.8	70.8	31	38.7	2	6	90	0.00	30.184 
17:55	70.6	70.6	70.6	28	35.9	2	7	90	0.00	30.184 
18:00	70.4	70.4	70.4	27	34.8	1	5	90	0.00	30.187 
18:05	70.3	70.3	70.3	31	38.2	2	5	90	0.00	30.187 
18:10	70.3	70.3	70.3	28	35.6	3	7	90	0.00	30.187 
18:15	69.9	69.9	69.9	30	37.0	2	4	68	0.00	30.186 
18:20	69.9	69.9	69.9	29	36.2	3	6	90	0.00	30.186 
18:25	69.8	69.8	69.8	29	36.1	2	5	112	0.00	30.186 
18:30	69.8	69.8	69.8	30	37.0	1	5	112	0.00	30.186 
18:35	69.8	69.8	69.8	31	37.8	2	8	90	0.00	30.186 
18:40	69.6	69.6	69.6	31	37.6	1	3	90	0.00	30.186 
18:45	69.6	69.6	69.6	31	37.6	1	4	90	0.00	30.186 
18:50	69.6	69.6	69.6	30	36.8	3	9	112	0.00	30.186 
18:55	69.6	69.6	69.6	31	37.6	2	6	112	0.00	30.186 
19:00	69.4	69.4	69.4	31	37.4	1	5	90	0.00	30.190 
19:05	69.3	69.3	69.3	33	39.0	3	7	90	0.00	30.190 
19:10	68.9	68.9	68.9	37	41.5	2	6	90	0.00	30.190 
19:15	68.8	68.8	68.8	39	42.8	2	5	90	0.00	30.188 
19:20	68.3	68.3	68.3	40	43.0	3	7	90	0.00	30.188 
19:25	67.9	67.9	67.9	40	42.7	2	5	90	0.00	30.188 
19:30	67.6	67.6	67.6	41	43.1	1	3	90	0.00	30.190 
19:35	67.3	67.3	67.3	42	43.4	1	4	90	0.00	30.190 
19:40	66.9	66.9	66.9	42	43.1	1	3	90	0.00	30.190 
19:45	66.6	66.6	66.6	43	43.4	1	3	90	0.00	30.191 
19:50	66.3	66.3	66.3	43	43.1	1	4	90	0.00	30.191 
19:55	66.0	66.0	66.0	43	42.9	1	5	90	0.00	30.191 
20:00	65.6	65.6	65.6	44	43.1	0	4	90	0.00	30.197 
20:05	65.3	65.3	65.3	45	43.4	1	6	90	0.00	30.197 
20:10	65.0	65.0	65.0	45	43.1	1	4	112	0.00	30.197 
20:15	64.5	64.5	64.5	46	43.3	1	3	112	0.00	30.196 
20:20	64.2	64.2	64.2	47	43.5	0	1	112	0.00	30.196 
20:25	63.7	63.7	63.7	47	43.1	0	2	112	0.00	30.196 
20:30	63.2	63.2	63.2	48	43.2	1	3	112	0.00	30.202 
20:35	62.7	62.7	62.7	49	43.3	1	3	112	0.00	30.202 
20:40	62.3	62.3	62.3	49	42.9	1	2	112	0.00	30.202 
20:45	62.0	62.0	62.0	50	43.1	1	4	112	0.00	30.207 
20:50	61.6	61.6	61.6	50	42.8	1	2	112	0.00	30.207 
20:55	61.2	61.2	61.2	51	42.9	1	3	112	0.00	30.207 
21:00	60.9	60.9	60.9	52	43.2	1	3	112	0.00	30.211 
21:05	60.4	60.4	60.4	53	43.2	1	3	112	0.00	30.211 
21:10	60.1	60.1	60.1	53	42.9	1	3	112	0.00	30.211 
21:15	59.8	59.8	59.8	54	43.1	0	3	112	0.00	30.218 
21:20	59.5	59.5	59.5	55	43.3	0	4	112	0.00	30.218 
21:25	59.2	59.2	59.2	55	43.0	1	7	90	0.00	30.218 
21:30	58.9	58.9	58.9	54	42.3	1	5	90	0.00	30.223 
21:35	58.7	58.7	58.7	54	42.1	0	2	90	0.00	30.223 
21:40	58.4	58.4	58.4	54	41.8	0	2	90	0.00	30.223 
21:45	58.1	58.1	58.1	54	41.5	0	3	90	0.00	30.230 
21:50	57.8	57.8	57.8	53	40.8	2	9	90	0.00	30.230 
21:55	57.6	57.6	57.6	52	40.1	2	5	90	0.00	30.230 
22:00	57.5	57.5	57.5	52	40.0	1	5	90	0.00	30.236 
22:05	57.2	57.2	57.2	53	40.2	1	3	90	0.00	30.236 
22:10	56.9	56.9	56.9	53	39.9	1	4	90	0.00	30.236 
22:15	56.5	56.5	56.5	54	40.1	0	2	90	0.00	30.234 
22:20	56.2	56.2	56.2	54	39.8	0	0	---	0.00	30.234 
22:25	55.9	55.9	55.9	56	40.4	0	1	90	0.00	30.234 
22:30	55.6	55.6	55.6	55	39.7	0	5	90	0.00	30.237 
22:35	55.3	55.3	55.3	55	39.4	1	3	90	0.00	30.237 
22:40	55.1	55.1	55.1	55	39.2	0	1	90	0.00	30.237 
22:45	54.8	54.8	54.8	55	38.9	0	1	90	0.00	30.238 
22:50	54.5	54.5	54.5	55	38.7	0	1	90	0.00	30.238 
22:55	54.1	54.1	54.1	56	38.8	0	2	90	0.00	30.238 
23:00	53.8	53.8	53.8	56	38.5	0	3	90	0.00	30.239 
23:05	53.5	53.5	53.5	56	38.2	0	2	90	0.00	30.239 
23:10	53.3	53.3	53.3	56	38.0	0	2	90	0.00	30.239 
23:15	53.2	53.2	53.2	55	37.5	0	2	90	0.00	30.235 
23:20	52.9	52.9	52.9	55	37.2	0	1	90	0.00	30.235 
23:25	52.8	52.8	52.8	55	37.1	0	1	90	0.00	30.235 
23:30	52.5	52.5	52.5	54	36.3	0	2	90	0.00	30.235 
23:35	52.3	52.3	52.3	54	36.2	0	2	90	0.00	30.235 
23:40	52.2	52.2	52.2	55	36.5	1	3	90	0.00	30.235 
23:45	52.0	52.0	52.0	55	36.3	0	2	90	0.00	30.234 
23:50	51.7	51.7	51.7	56	36.5	0	1	90	0.00	30.234 
23:55	51.6	51.6	51.6	56	36.4	0	1	90	0.00	30.234 

CoCoRaHS
IN-AL-39
A2 Web Hosting
Creative Commons License
GoDaddy
search engine by freefind advanced

loaded 2018-11-16 01:03:33 • last modified 2010-11-18 10:43:29
Privacy PolicyDisclaimer
• wx.awcolley.com is powered by PmWiki v.2002016 •
• all content (unless otherwise noted) © 2018 A W Colley